createdAt,value
2022-08-28T00:00:39.178Z,10.57
2022-08-28T00:03:07.730Z,12.20
2022-08-28T00:05:36.220Z,13.13
2022-08-28T00:08:05.813Z,12.50
2022-08-28T00:10:34.190Z,11.10
2022-08-28T00:13:02.257Z,12.07
2022-08-28T00:15:33.625Z,13.30
2022-08-28T00:18:03.687Z,12.13
2022-08-28T00:20:33.253Z,12.77
2022-08-28T00:23:01.639Z,15.20
2022-08-28T00:25:32.805Z,13.43
2022-08-28T00:28:05.412Z,13.17
2022-08-28T00:30:39.822Z,14.53
2022-08-28T00:33:12.066Z,12.37
2022-08-28T00:35:41.265Z,12.47
2022-08-28T00:38:10.116Z,15.53
2022-08-28T00:40:42.702Z,12.73
2022-08-28T00:43:23.363Z,13.27
2022-08-28T00:45:51.476Z,12.67
2022-08-28T00:48:19.772Z,14.77
2022-08-28T00:51:05.548Z,12.00
2022-08-28T00:53:33.681Z,15.90
2022-08-28T00:56:07.055Z,11.77
2022-08-28T00:58:43.261Z,12.67
2022-08-28T01:01:11.821Z,13.20
2022-08-28T01:03:39.777Z,13.37
2022-08-28T01:06:08.593Z,12.47
2022-08-28T01:08:39.828Z,14.53
2022-08-28T01:11:10.204Z,12.87
2022-08-28T01:13:41.076Z,12.03
2022-08-28T01:16:09.876Z,14.33
2022-08-28T01:18:39.110Z,15.73
2022-08-28T01:21:20.351Z,13.83
2022-08-28T01:23:57.802Z,13.13
2022-08-28T01:26:26.900Z,12.50
2022-08-28T01:28:55.070Z,13.93
2022-08-28T01:31:23.194Z,14.40
2022-08-28T01:33:50.970Z,13.57
2022-08-28T01:36:20.832Z,13.97
2022-08-28T01:38:57.266Z,13.60
2022-08-28T01:41:25.204Z,13.23
2022-08-28T01:43:53.886Z,14.47
2022-08-28T01:46:21.927Z,13.23
2022-08-28T01:48:50.083Z,12.67
2022-08-28T01:51:22.680Z,12.45
2022-08-28T01:53:54.165Z,12.13
2022-08-28T01:56:22.204Z,12.33
2022-08-28T01:58:50.368Z,12.37
2022-08-28T02:01:21.273Z,11.40
2022-08-28T02:03:49.766Z,11.87
2022-08-28T02:06:18.107Z,12.23
2022-08-28T02:08:46.807Z,14.83
2022-08-28T02:11:16.643Z,16.13
2022-08-28T02:13:44.877Z,22.20
2022-08-28T02:16:13.427Z,20.47
2022-08-28T02:18:41.845Z,15.90
2022-08-28T02:21:11.154Z,13.83
2022-08-28T02:23:40.630Z,15.00
2022-08-28T02:26:08.383Z,13.20
2022-08-28T02:28:38.627Z,12.30
2022-08-28T02:31:09.407Z,13.20
2022-08-28T02:33:38.473Z,14.63
2022-08-28T02:36:08.825Z,12.33
2022-08-28T02:38:37.907Z,12.97
2022-08-28T02:41:05.932Z,13.83
2022-08-28T02:43:34.132Z,12.40
2022-08-28T02:46:04.791Z,12.47
2022-08-28T02:48:34.976Z,12.43
2022-08-28T02:51:06.038Z,12.60
2022-08-28T02:53:34.209Z,12.00
2022-08-28T02:56:03.005Z,12.03
2022-08-28T02:58:32.296Z,11.83
2022-08-28T03:01:01.865Z,12.07
2022-08-28T03:03:32.692Z,11.93
2022-08-28T03:06:01.310Z,12.23
2022-08-28T03:08:30.310Z,11.80
2022-08-28T03:10:58.384Z,12.30
2022-08-28T03:13:27.284Z,12.57
2022-08-28T03:15:56.363Z,12.83
2022-08-28T03:18:25.649Z,13.97
2022-08-28T03:20:55.965Z,14.67
2022-08-28T03:23:30.271Z,13.50
2022-08-28T03:26:05.038Z,13.77
2022-08-28T03:28:36.195Z,12.97
2022-08-28T03:31:04.345Z,14.47
2022-08-28T03:33:33.820Z,13.87
2022-08-28T03:36:04.675Z,14.87
2022-08-28T03:38:33.881Z,15.17
2022-08-28T03:41:02.447Z,15.03
2022-08-28T03:43:30.534Z,14.23
2022-08-28T03:46:00.582Z,14.20
2022-08-28T03:48:31.268Z,14.27
2022-08-28T03:51:00.316Z,14.73
2022-08-28T03:53:30.734Z,15.07
2022-08-28T03:55:59.117Z,14.67
2022-08-28T03:58:28.410Z,13.10
2022-08-28T04:00:56.680Z,15.23
2022-08-28T04:03:24.898Z,15.23
2022-08-28T04:05:53.518Z,16.60
2022-08-28T04:08:23.116Z,14.13
2022-08-28T04:10:53.253Z,13.03
2022-08-28T04:13:22.722Z,13.27
2022-08-28T04:15:58.456Z,15.13
2022-08-28T04:18:26.893Z,12.77
2022-08-28T04:21:03.390Z,12.53
2022-08-28T04:23:31.695Z,13.83
2022-08-28T04:26:01.059Z,16.43
2022-08-28T04:28:29.095Z,15.57
2022-08-28T04:30:57.149Z,12.93
2022-08-28T04:33:27.146Z,11.67
2022-08-28T04:35:55.847Z,13.70
2022-08-28T04:38:24.253Z,13.00
2022-08-28T04:40:52.258Z,13.73
2022-08-28T04:43:22.351Z,13.27
2022-08-28T04:45:50.463Z,14.30
2022-08-28T04:48:19.228Z,16.40
2022-08-28T04:50:49.609Z,17.27
2022-08-28T04:53:20.029Z,16.53
2022-08-28T04:55:55.064Z,13.70
2022-08-28T04:58:24.685Z,13.70
2022-08-28T05:00:53.887Z,12.93
2022-08-28T05:03:23.072Z,12.50
2022-08-28T05:05:53.445Z,12.60
2022-08-28T05:08:26.952Z,12.50
2022-08-28T05:10:55.488Z,12.33
2022-08-28T05:13:25.730Z,21.63
2022-08-28T05:15:55.345Z,16.97
2022-08-28T05:18:25.609Z,19.13
2022-08-28T05:20:53.629Z,18.60
2022-08-28T05:23:22.192Z,15.63
2022-08-28T05:25:53.970Z,14.03
2022-08-28T05:28:25.325Z,18.43
2022-08-28T05:30:54.174Z,16.27
2022-08-28T05:33:22.214Z,15.47
2022-08-28T05:35:50.208Z,13.20
2022-08-28T05:38:18.439Z,13.23
2022-08-28T05:40:49.209Z,13.00
2022-08-28T05:43:18.635Z,11.80
2022-08-28T05:45:58.469Z,14.47
2022-08-28T05:48:37.039Z,15.03
2022-08-28T05:51:07.390Z,15.00
2022-08-28T05:53:35.896Z,14.17
2022-08-28T05:56:05.113Z,14.10
2022-08-28T05:58:34.739Z,14.27
2022-08-28T06:01:10.088Z,13.20
2022-08-28T06:03:38.881Z,12.80
2022-08-28T06:06:08.130Z,13.37
2022-08-28T06:08:36.510Z,13.07
2022-08-28T06:11:05.428Z,17.40
2022-08-28T06:13:35.664Z,18.27
2022-08-28T06:16:05.096Z,14.47
2022-08-28T06:18:36.645Z,13.17
2022-08-28T06:21:05.285Z,12.37
2022-08-28T06:23:33.390Z,12.50
2022-08-28T06:26:01.484Z,14.20
2022-08-28T06:28:29.627Z,12.40
2022-08-28T06:31:18.503Z,12.27
2022-08-28T06:33:47.233Z,13.47
2022-08-28T06:36:15.170Z,12.83
2022-08-28T06:38:46.624Z,12.57
2022-08-28T06:41:15.632Z,12.50
2022-08-28T06:43:44.113Z,16.00
2022-08-28T06:46:12.202Z,13.30
2022-08-28T06:48:40.399Z,12.70
2022-08-28T06:51:12.186Z,12.30
2022-08-28T06:53:42.239Z,12.03
2022-08-28T06:56:13.645Z,14.13
2022-08-28T06:58:54.146Z,14.60
2022-08-28T07:01:25.609Z,15.27
2022-08-28T07:03:55.823Z,17.93
2022-08-28T07:06:25.421Z,13.83
2022-08-28T07:08:53.603Z,12.50
2022-08-28T07:11:25.965Z,13.93
2022-08-28T07:13:55.914Z,13.50
2022-08-28T07:16:27.518Z,12.97
2022-08-28T07:18:56.096Z,12.93
2022-08-28T07:21:25.868Z,12.77
2022-08-28T07:23:53.975Z,13.30
2022-08-28T07:26:26.230Z,14.40
2022-08-28T07:28:59.450Z,12.20
2022-08-28T07:31:38.475Z,15.47
2022-08-28T07:34:06.673Z,15.33
2022-08-28T07:36:36.250Z,13.77
2022-08-28T07:39:05.111Z,12.27
2022-08-28T07:41:35.487Z,12.57
2022-08-28T07:44:21.967Z,12.43
2022-08-28T07:46:54.011Z,12.43
2022-08-28T07:49:23.811Z,13.87
2022-08-28T07:51:53.910Z,13.37
2022-08-28T07:54:22.821Z,13.07
2022-08-28T07:56:51.428Z,15.00
2022-08-28T07:59:20.306Z,17.60
2022-08-28T08:01:52.307Z,14.47
2022-08-28T08:04:22.381Z,14.03
2022-08-28T08:06:57.814Z,12.50
2022-08-28T08:09:27.083Z,13.70
2022-08-28T08:11:56.616Z,13.27
2022-08-28T08:14:26.095Z,12.13
2022-08-28T08:16:54.193Z,13.70
2022-08-28T08:19:22.501Z,12.77
2022-08-28T08:21:55.358Z,12.60
2022-08-28T08:24:26.436Z,14.63
2022-08-28T08:27:00.212Z,12.57
2022-08-28T08:29:31.492Z,11.83
2022-08-28T08:32:05.252Z,11.90
2022-08-28T08:34:35.077Z,16.13
2022-08-28T08:37:05.793Z,13.30
2022-08-28T08:39:34.848Z,14.10
2022-08-28T08:42:06.289Z,12.80
2022-08-28T08:44:37.852Z,14.10
2022-08-28T08:47:14.946Z,13.63
2022-08-28T08:49:49.695Z,12.87
2022-08-28T08:52:36.029Z,12.10
2022-08-28T08:55:17.502Z,12.70
2022-08-28T08:57:49.291Z,12.90
2022-08-28T09:00:18.182Z,14.37
2022-08-28T09:02:51.536Z,14.10
2022-08-28T09:05:24.050Z,14.60
2022-08-28T09:07:58.290Z,13.33
2022-08-28T09:10:36.353Z,14.10
2022-08-28T09:13:14.801Z,12.73
2022-08-28T09:15:50.372Z,11.50
2022-08-28T09:18:22.452Z,13.10
2022-08-28T09:20:52.409Z,14.83
2022-08-28T09:23:23.255Z,14.00
2022-08-28T09:25:55.490Z,16.03
2022-08-28T09:28:26.403Z,13.47
2022-08-28T09:31:01.985Z,12.15
2022-08-28T09:33:33.791Z,13.07
2022-08-28T09:36:24.010Z,13.47
2022-08-28T09:39:17.023Z,14.07
2022-08-28T09:42:11.588Z,17.37
2022-08-28T09:44:57.076Z,16.83
2022-08-28T09:47:48.834Z,16.23
2022-08-28T09:50:21.513Z,17.80
2022-08-28T09:52:49.870Z,14.47
2022-08-28T09:55:26.729Z,12.70
2022-08-28T09:57:55.594Z,13.13
2022-08-28T10:00:24.043Z,13.53
2022-08-28T10:03:04.504Z,12.33
2022-08-28T10:05:42.829Z,11.87
2022-08-28T10:08:24.378Z,13.00
2022-08-28T10:10:59.256Z,14.40
2022-08-28T10:13:31.615Z,13.17
2022-08-28T10:16:26.326Z,12.47
2022-08-28T10:19:03.183Z,13.50
2022-08-28T10:21:38.759Z,15.73
2022-08-28T10:24:26.032Z,12.93
2022-08-28T10:27:05.709Z,12.57
2022-08-28T10:29:49.621Z,12.70
2022-08-28T10:32:29.291Z,13.73
2022-08-28T10:35:04.984Z,12.50
2022-08-28T10:37:49.687Z,12.47
2022-08-28T10:40:22.634Z,13.50
2022-08-28T10:42:58.916Z,11.50
2022-08-28T10:45:27.795Z,12.40
2022-08-28T10:48:01.172Z,12.77
2022-08-28T10:50:33.324Z,12.67
2022-08-28T10:53:07.493Z,11.90
2022-08-28T10:55:40.541Z,12.30
2022-08-28T10:58:23.975Z,12.00
2022-08-28T11:00:55.280Z,12.37
2022-08-28T11:03:34.889Z,12.83
2022-08-28T11:06:11.461Z,11.50
2022-08-28T11:08:40.894Z,10.83
2022-08-28T11:11:14.462Z,11.10
2022-08-28T11:13:57.537Z,12.50
2022-08-28T11:16:36.756Z,11.57
2022-08-28T11:19:43.972Z,12.40
2022-08-28T11:22:16.772Z,12.17
2022-08-28T11:24:57.960Z,11.57
2022-08-28T11:27:33.305Z,12.93
2022-08-28T11:30:29.567Z,12.07
2022-08-28T11:33:01.012Z,12.27
2022-08-28T11:35:51.038Z,10.93
2022-08-28T11:38:56.414Z,12.50
2022-08-28T11:41:27.545Z,11.73
2022-08-28T11:44:25.500Z,14.00
2022-08-28T11:46:57.191Z,11.60
2022-08-28T11:49:44.215Z,11.63
2022-08-28T11:52:29.901Z,11.73
2022-08-28T11:55:09.341Z,12.03
2022-08-28T11:57:54.117Z,12.40
2022-08-28T12:00:27.267Z,12.00
2022-08-28T12:03:09.420Z,11.77
2022-08-28T12:05:45.275Z,11.93
2022-08-28T12:08:34.729Z,14.00
2022-08-28T12:11:02.868Z,12.97
2022-08-28T12:13:57.616Z,13.13
2022-08-28T12:16:26.877Z,14.20
2022-08-28T12:19:03.657Z,15.00
2022-08-28T12:21:39.250Z,13.93
2022-08-28T12:24:20.844Z,12.23
2022-08-28T12:26:54.777Z,11.97
2022-08-28T12:29:33.658Z,12.67
2022-08-28T12:32:30.588Z,12.27
2022-08-28T12:35:16.741Z,14.23
2022-08-28T12:37:52.319Z,14.70
2022-08-28T12:40:24.860Z,14.97
2022-08-28T12:42:55.912Z,15.20
2022-08-28T12:45:27.940Z,14.53
2022-08-28T12:48:00.195Z,16.87
2022-08-28T12:50:41.028Z,18.33
2022-08-28T12:53:14.756Z,15.27
2022-08-28T12:55:46.518Z,16.30
2022-08-28T12:58:28.000Z,14.57
2022-08-28T13:00:59.031Z,13.67
2022-08-28T13:03:27.263Z,11.10
2022-08-28T13:06:05.089Z,11.93
2022-08-28T13:08:35.397Z,11.57
2022-08-28T13:11:03.479Z,11.17
2022-08-28T13:13:36.913Z,12.33
2022-08-28T13:16:07.405Z,13.80
2022-08-28T13:18:51.506Z,13.13
2022-08-28T13:21:36.190Z,11.80
2022-08-28T13:24:37.297Z,16.83
2022-08-28T13:27:09.501Z,15.43
2022-08-28T13:29:38.392Z,11.73
2022-08-28T13:32:08.854Z,10.43
2022-08-28T13:34:38.720Z,11.70
2022-08-28T13:37:42.438Z,11.13
2022-08-28T13:40:24.507Z,13.00
2022-08-28T13:43:03.894Z,12.30
2022-08-28T13:45:35.639Z,12.20
2022-08-28T13:48:11.611Z,11.33
2022-08-28T13:50:42.274Z,11.77
2022-08-28T13:53:16.749Z,10.83
2022-08-28T13:55:45.139Z,11.17
2022-08-28T13:58:14.042Z,10.90
2022-08-28T14:00:45.346Z,11.17
2022-08-28T14:03:31.419Z,12.47
2022-08-28T14:05:59.515Z,12.00
2022-08-28T14:08:29.004Z,12.03
2022-08-28T14:10:57.064Z,11.43
2022-08-28T14:13:27.657Z,11.97
2022-08-28T14:15:55.968Z,11.27
2022-08-28T14:18:24.375Z,10.37
2022-08-28T14:20:52.496Z,10.53
2022-08-28T14:23:20.625Z,12.48
2022-08-28T14:25:50.550Z,14.37
2022-08-28T14:28:18.685Z,10.90
2022-08-28T14:30:47.958Z,11.50
2022-08-28T14:33:20.654Z,20.70
2022-08-28T14:35:49.963Z,13.17
2022-08-28T14:38:18.826Z,11.80
2022-08-28T14:40:46.923Z,11.90
2022-08-28T14:43:16.526Z,12.53
2022-08-28T14:45:46.964Z,12.77
2022-08-28T14:48:15.766Z,13.87
2022-08-28T14:50:45.794Z,14.00
2022-08-28T14:53:14.907Z,11.87
2022-08-28T14:55:44.617Z,11.53
2022-08-28T14:58:12.734Z,11.90
2022-08-28T15:00:44.947Z,11.48
2022-08-28T15:03:13.949Z,12.13
2022-08-28T15:05:42.697Z,12.07
2022-08-28T15:08:12.785Z,12.13
2022-08-28T15:10:42.037Z,10.17
2022-08-28T15:13:11.583Z,10.80
2022-08-28T15:15:41.303Z,11.27
2022-08-28T15:18:11.922Z,11.40
2022-08-28T15:20:40.983Z,10.50
2022-08-28T15:23:09.689Z,12.33
2022-08-28T15:25:37.757Z,12.17
2022-08-28T15:28:06.344Z,12.20
2022-08-28T15:30:34.581Z,12.93
2022-08-28T15:33:02.668Z,12.00
2022-08-28T15:35:33.725Z,11.37
2022-08-28T15:38:01.752Z,12.87
2022-08-28T15:40:47.285Z,11.03
2022-08-28T15:43:15.587Z,11.53
2022-08-28T15:45:43.778Z,11.27
2022-08-28T15:48:13.319Z,12.20
2022-08-28T15:50:43.898Z,11.77
2022-08-28T15:53:11.974Z,11.53
2022-08-28T15:55:40.095Z,11.90
2022-08-28T15:58:14.027Z,14.20
2022-08-28T16:00:42.940Z,13.87
2022-08-28T16:03:10.962Z,11.50
2022-08-28T16:05:40.855Z,13.07
2022-08-28T16:08:11.200Z,13.27
2022-08-28T16:10:40.078Z,13.10
2022-08-28T16:13:08.089Z,14.27
2022-08-28T16:15:36.199Z,12.90
2022-08-28T16:18:08.843Z,14.07
2022-08-28T16:20:37.222Z,15.50
2022-08-28T16:23:05.613Z,11.50
2022-08-28T16:25:35.574Z,10.60
2022-08-28T16:28:04.032Z,10.80
2022-08-28T16:30:38.800Z,10.57
2022-08-28T16:33:12.075Z,13.00
2022-08-28T16:35:42.408Z,12.90
2022-08-28T16:38:18.370Z,10.43
2022-08-28T16:40:48.259Z,11.50
2022-08-28T16:43:17.166Z,11.93
2022-08-28T16:45:46.256Z,11.97
2022-08-28T16:48:16.181Z,12.67
2022-08-28T16:50:45.370Z,12.77
2022-08-28T16:53:13.770Z,13.60
2022-08-28T16:55:49.443Z,16.27
2022-08-28T16:58:17.704Z,15.23
2022-08-28T17:00:52.710Z,13.57
2022-08-28T17:03:26.382Z,13.97
2022-08-28T17:05:56.973Z,13.03
2022-08-28T17:08:25.143Z,14.80
2022-08-28T17:10:55.339Z,16.17
2022-08-28T17:13:23.304Z,16.00
2022-08-28T17:15:52.082Z,13.63
2022-08-28T17:18:20.086Z,16.37
2022-08-28T17:21:05.255Z,15.17
2022-08-28T17:23:35.461Z,13.20
2022-08-28T17:26:06.745Z,12.80
2022-08-28T17:28:34.774Z,13.10
2022-08-28T17:31:02.893Z,17.70
2022-08-28T17:33:31.434Z,14.83
2022-08-28T17:35:59.959Z,19.40
2022-08-28T17:38:28.035Z,19.27
2022-08-28T17:40:56.097Z,17.37
2022-08-28T17:43:26.216Z,20.97
2022-08-28T17:45:54.260Z,19.03
2022-08-28T17:48:22.224Z,16.87
2022-08-28T17:50:50.554Z,21.77
2022-08-28T17:53:18.880Z,21.40
2022-08-28T17:55:47.305Z,18.80
2022-08-28T17:58:15.417Z,21.73
2022-08-28T18:00:45.102Z,18.53
2022-08-28T18:03:14.359Z,21.93
2022-08-28T18:05:42.579Z,20.33
2022-08-28T18:08:10.634Z,17.97
2022-08-28T18:10:38.861Z,20.27
2022-08-28T18:13:07.601Z,19.20
2022-08-28T18:15:36.925Z,13.53
2022-08-28T18:18:09.793Z,14.47
2022-08-28T18:20:37.989Z,16.70
2022-08-28T18:23:06.386Z,15.50
2022-08-28T18:25:50.782Z,15.77
2022-08-28T18:28:22.431Z,16.03
2022-08-28T18:30:52.249Z,14.80
2022-08-28T18:33:24.352Z,14.40
2022-08-28T18:35:54.373Z,12.70
2022-08-28T18:38:25.795Z,12.80
2022-08-28T18:40:54.115Z,12.53
2022-08-28T18:43:22.815Z,12.97
2022-08-28T18:45:54.448Z,13.07
2022-08-28T18:48:24.570Z,13.63
2022-08-28T18:50:52.955Z,13.10
2022-08-28T18:53:23.838Z,12.10
2022-08-28T18:55:53.841Z,13.20
2022-08-28T18:58:22.227Z,15.10
2022-08-28T19:00:51.188Z,13.00
2022-08-28T19:03:19.184Z,13.10
2022-08-28T19:05:49.097Z,13.50
2022-08-28T19:08:17.142Z,14.60
2022-08-28T19:10:45.736Z,13.77
2022-08-28T19:13:13.761Z,13.63
2022-08-28T19:15:41.940Z,12.20
2022-08-28T19:18:10.042Z,12.43
2022-08-28T19:20:37.998Z,15.73
2022-08-28T19:23:08.776Z,15.53
2022-08-28T19:25:36.818Z,14.30
2022-08-28T19:28:05.590Z,15.47
2022-08-28T19:30:35.690Z,14.53
2022-08-28T19:33:05.654Z,14.63
2022-08-28T19:35:36.520Z,15.23
2022-08-28T19:38:04.619Z,16.37
2022-08-28T19:40:34.069Z,15.33
2022-08-28T19:43:02.270Z,15.67
2022-08-28T19:45:34.103Z,16.00
2022-08-28T19:48:03.074Z,20.20
2022-08-28T19:50:31.833Z,16.60
2022-08-28T19:53:00.082Z,14.97
2022-08-28T19:55:29.370Z,14.37
2022-08-28T19:57:59.008Z,13.47
2022-08-28T20:00:29.725Z,13.67
2022-08-28T20:02:57.913Z,13.73
2022-08-28T20:05:26.206Z,14.10
2022-08-28T20:07:54.287Z,16.40
2022-08-28T20:10:22.387Z,13.73
2022-08-28T20:12:50.785Z,14.30
2022-08-28T20:15:21.708Z,13.87
2022-08-28T20:17:50.354Z,13.17
2022-08-28T20:20:19.605Z,16.53
2022-08-28T20:22:47.730Z,16.40
2022-08-28T20:25:18.259Z,13.67
2022-08-28T20:27:46.466Z,14.20
2022-08-28T20:30:17.508Z,15.07
2022-08-28T20:32:46.913Z,16.93
2022-08-28T20:35:15.502Z,16.97
2022-08-28T20:37:45.002Z,15.67
2022-08-28T20:40:14.802Z,12.87
2022-08-28T20:42:43.087Z,12.87
2022-08-28T20:45:12.479Z,12.73
2022-08-28T20:47:40.562Z,14.07
2022-08-28T20:50:11.269Z,14.77
2022-08-28T20:52:39.933Z,14.63
2022-08-28T20:55:10.357Z,15.60
2022-08-28T20:57:38.410Z,14.13
2022-08-28T21:00:09.069Z,14.60
2022-08-28T21:02:37.868Z,15.13
2022-08-28T21:05:07.377Z,14.93
2022-08-28T21:07:36.783Z,14.03
2022-08-28T21:10:07.991Z,14.13
2022-08-28T21:12:37.840Z,12.97
2022-08-28T21:15:07.327Z,13.67
2022-08-28T21:17:35.491Z,14.27
2022-08-28T21:20:08.280Z,14.10
2022-08-28T21:22:39.737Z,13.87
2022-08-28T21:25:09.761Z,13.37
2022-08-28T21:27:38.538Z,12.53
2022-08-28T21:30:08.545Z,15.77
2022-08-28T21:32:36.816Z,14.47
2022-08-28T21:35:07.031Z,13.63
2022-08-28T21:37:35.498Z,12.97
2022-08-28T21:40:06.497Z,13.17
2022-08-28T21:42:34.589Z,12.20
2022-08-28T21:45:02.780Z,14.17
2022-08-28T21:47:31.538Z,13.20
2022-08-28T21:50:00.199Z,12.73
2022-08-28T21:52:30.010Z,13.70
2022-08-28T21:54:59.390Z,11.90
2022-08-28T21:57:29.578Z,13.17
2022-08-28T21:59:58.488Z,12.77
2022-08-28T22:02:27.135Z,12.87
2022-08-28T22:04:55.299Z,13.73
2022-08-28T22:07:23.777Z,13.70
2022-08-28T22:09:52.054Z,12.50
2022-08-28T22:12:20.137Z,13.00
2022-08-28T22:14:49.591Z,14.17
2022-08-28T22:17:17.784Z,13.67
2022-08-28T22:19:46.809Z,12.90
2022-08-28T22:22:32.657Z,14.20
2022-08-28T22:25:00.840Z,14.07
2022-08-28T22:27:29.034Z,13.47
2022-08-28T22:29:58.793Z,12.13
2022-08-28T22:32:27.859Z,11.27
2022-08-28T22:34:55.941Z,12.40
2022-08-28T22:37:25.891Z,13.20
2022-08-28T22:39:54.265Z,12.87
2022-08-28T22:42:23.095Z,12.77
2022-08-28T22:44:51.139Z,11.53
2022-08-28T22:47:20.488Z,13.33
2022-08-28T22:49:48.690Z,12.63
2022-08-28T22:52:16.765Z,14.40
2022-08-28T22:54:44.777Z,14.37
2022-08-28T22:57:12.802Z,13.70
2022-08-28T22:59:41.929Z,14.57
2022-08-28T23:02:09.971Z,15.60
2022-08-28T23:04:39.358Z,15.13
2022-08-28T23:07:07.669Z,16.97
2022-08-28T23:09:36.524Z,16.07
2022-08-28T23:12:05.782Z,15.13
2022-08-28T23:14:33.865Z,16.90
2022-08-28T23:17:01.865Z,17.20
2022-08-28T23:19:30.370Z,16.10
2022-08-28T23:21:59.911Z,14.67
2022-08-28T23:24:27.941Z,14.50
2022-08-28T23:26:55.922Z,14.43
2022-08-28T23:29:24.038Z,15.90
2022-08-28T23:31:52.080Z,16.47
2022-08-28T23:34:20.110Z,16.23
2022-08-28T23:36:48.256Z,15.33
2022-08-28T23:39:18.156Z,15.60
2022-08-28T23:41:46.126Z,15.07
2022-08-28T23:44:14.801Z,15.70
2022-08-28T23:46:42.850Z,14.10
2022-08-28T23:49:11.153Z,13.60
2022-08-28T23:51:39.716Z,13.30
2022-08-28T23:54:09.082Z,14.00
2022-08-28T23:56:38.762Z,14.53
2022-08-28T23:59:07.912Z,16.07
